createdAt,value
2018-11-03T00:00:17.561Z,17.4
2018-11-03T00:01:06.956Z,17.4
2018-11-03T00:01:57.148Z,17.4
2018-11-03T00:02:46.993Z,17.4
2018-11-03T00:03:37.251Z,17.4
2018-11-03T00:04:26.203Z,17.4
2018-11-03T00:05:18.339Z,17.4
2018-11-03T00:06:08.193Z,17.4
2018-11-03T00:25:05.920Z,17.3
2018-11-03T00:25:54.240Z,17.4
2018-11-03T00:26:45.380Z,17.4
2018-11-03T00:27:35.947Z,17.4
2018-11-03T00:28:27.732Z,17.4
2018-11-03T00:29:16.788Z,17.4
2018-11-03T00:30:05.083Z,17.4
2018-11-03T00:30:56.104Z,17.4
2018-11-03T00:31:47.937Z,17.3
2018-11-03T00:32:35.784Z,17.4
2018-11-03T00:33:26.472Z,17.4
2018-11-03T00:34:16.481Z,17.3
2018-11-03T00:35:08.792Z,17.4
2018-11-03T00:35:57.258Z,17.3
2018-11-03T00:36:45.354Z,17.3
2018-11-03T00:37:35.962Z,17.3
2018-11-03T00:38:27.451Z,17.3
2018-11-03T00:39:15.977Z,17.3
2018-11-03T00:40:07.133Z,17.3
2018-11-03T00:40:57.576Z,17.3
2018-11-03T00:41:47.477Z,17.3
2018-11-03T00:42:37.130Z,17.3
2018-11-03T00:43:26.653Z,17.3
2018-11-03T00:44:16.764Z,17.3
2018-11-03T00:45:08.189Z,17.3
2018-11-03T00:45:56.307Z,17.3
2018-11-03T00:46:48.124Z,17.3
2018-11-03T00:47:37.781Z,17.3
2018-11-03T00:48:29.358Z,17.3
2018-11-03T00:49:17.679Z,17.3
2018-11-03T00:50:06.931Z,17.3
2018-11-03T00:50:58.109Z,17.3
2018-11-03T00:51:49.493Z,17.3
2018-11-03T00:52:38.404Z,17.3
2018-11-03T00:53:28.841Z,17.3
2018-11-03T00:54:18.254Z,17.3
2018-11-03T00:55:08.307Z,17.3
2018-11-03T00:55:59.271Z,17.3
2018-11-03T00:56:48.991Z,17.3
2018-11-03T00:57:38.574Z,17.3
2018-11-03T00:58:28.798Z,17.3
2018-11-03T00:59:18.361Z,17.3
2018-11-03T01:00:07.383Z,17.3
2018-11-03T01:00:58.421Z,17.3
2018-11-03T01:01:48.252Z,17.3
2018-11-03T01:02:39.577Z,17.3
2018-11-03T01:03:29.328Z,17.3
2018-11-03T01:04:18.562Z,17.3
2018-11-03T01:05:09.795Z,17.3
2018-11-03T01:05:58.692Z,17.3
2018-11-03T01:06:49.670Z,17.3
2018-11-03T01:07:39.032Z,17.3
2018-11-03T01:08:29.312Z,17.3
2018-11-03T01:09:19.426Z,17.3
2018-11-03T01:10:09.438Z,17.3
2018-11-03T01:10:59.733Z,17.3
2018-11-03T01:11:49.272Z,17.3
2018-11-03T01:12:39.050Z,17.3
2018-11-03T01:13:27.311Z,17.3
2018-11-03T01:14:18.687Z,17.3
2018-11-03T01:15:09.221Z,17.3
2018-11-03T01:15:58.981Z,17.3
2018-11-03T01:16:50.120Z,17.3
2018-11-03T01:17:40.367Z,17.3
2018-11-03T01:18:29.855Z,17.3
2018-11-03T01:19:20.658Z,17.3
2018-11-03T01:20:10.497Z,17.3
2018-11-03T01:21:00.482Z,17.3
2018-11-03T01:21:49.495Z,17.3
2018-11-03T01:22:40.178Z,17.3
2018-11-03T01:23:30.901Z,17.2
2018-11-03T01:24:20.151Z,17.3
2018-11-03T01:25:09.641Z,17.3
2018-11-03T01:26:00.869Z,17.3
2018-11-03T01:26:50.736Z,17.3
2018-11-03T01:27:41.002Z,17.3
2018-11-03T01:28:30.251Z,17.3
2018-11-03T01:29:20.614Z,17.2
2018-11-03T01:30:10.719Z,17.3
2018-11-03T01:30:59.584Z,17.3
2018-11-03T01:31:51.131Z,17.3
2018-11-03T01:32:42.174Z,17.2
2018-11-03T01:33:31.348Z,17.3
2018-11-03T01:34:21.187Z,17.2
2018-11-03T01:35:11.211Z,17.2
2018-11-03T01:36:00.123Z,17.2
2018-11-03T01:36:50.994Z,17.2
2018-11-03T01:37:41.426Z,17.2
2018-11-03T01:38:31.226Z,17.2
2018-11-03T01:39:21.948Z,17.2
2018-11-03T01:40:11.433Z,17.2
2018-11-03T01:41:01.665Z,17.2
2018-11-03T01:41:51.395Z,17.2
2018-11-03T01:42:42.447Z,17.2
2018-11-03T01:43:32.119Z,17.2
2018-11-03T01:44:20.971Z,17.2
2018-11-03T01:45:09.923Z,17.2
2018-11-03T01:46:00.658Z,17.2
2018-11-03T01:46:51.456Z,17.2
2018-11-03T01:47:41.725Z,17.2
2018-11-03T01:48:31.470Z,17.2
2018-11-03T01:49:21.458Z,17.2
2018-11-03T01:50:12.673Z,17.2
2018-11-03T01:51:02.831Z,17.2
2018-11-03T01:51:51.623Z,17.2
2018-11-03T01:52:41.912Z,17.2
2018-11-03T01:53:30.948Z,17.2
2018-11-03T01:54:22.978Z,17.2
2018-11-03T01:55:12.845Z,17.2
2018-11-03T01:56:02.242Z,17.2
2018-11-03T01:56:52.265Z,17.1
2018-11-03T01:57:43.520Z,17.2
2018-11-03T01:58:32.008Z,17.2
2018-11-03T01:59:22.594Z,17.2
2018-11-03T02:00:11.950Z,17.2
2018-11-03T02:01:02.860Z,17.2
2018-11-03T02:01:52.085Z,17.1
2018-11-03T02:02:42.526Z,17.1
2018-11-03T02:03:32.369Z,17.2
2018-11-03T02:04:22.430Z,17.1
2018-11-03T02:05:13.085Z,17.1
2018-11-03T02:06:02.768Z,17.1
2018-11-03T02:06:52.730Z,17.1
2018-11-03T02:07:44.026Z,17.2
2018-11-03T02:08:34.737Z,17.1
2018-11-03T02:09:24.587Z,17.1
2018-11-03T02:10:13.419Z,17.1
2018-11-03T02:11:03.911Z,17.2
2018-11-03T02:11:52.180Z,17.1
2018-11-03T02:12:46.412Z,17.1
2018-11-03T02:13:34.688Z,17.1
2018-11-03T02:14:24.406Z,17.2
2018-11-03T02:15:14.056Z,17.1
2018-11-03T02:16:06.885Z,17.1
2018-11-03T02:16:54.642Z,17.1
2018-11-03T02:17:44.429Z,17.1
2018-11-03T02:18:34.459Z,17.1
2018-11-03T02:19:26.007Z,17.1
2018-11-03T02:20:14.196Z,17.1
2018-11-03T02:21:04.874Z,17.1
2018-11-03T02:21:55.223Z,17.1
2018-11-03T02:22:44.259Z,17.1
2018-11-03T02:23:34.091Z,17.1
2018-11-03T02:24:24.175Z,17.1
2018-11-03T02:25:14.907Z,17.1
2018-11-03T02:26:05.046Z,17.1
2018-11-03T02:26:54.957Z,17.1
2018-11-03T02:27:44.264Z,17.1
2018-11-03T02:28:33.674Z,17.1
2018-11-03T02:29:24.496Z,17.1
2018-11-03T02:30:15.378Z,17.1
2018-11-03T02:31:05.163Z,17.1
2018-11-03T02:31:55.551Z,17.1
2018-11-03T02:32:45.751Z,17.1
2018-11-03T02:33:35.375Z,17.1
2018-11-03T02:34:24.805Z,17.1
2018-11-03T02:35:15.946Z,17.1
2018-11-03T02:36:07.383Z,17.1
2018-11-03T02:36:55.314Z,17.1
2018-11-03T02:37:45.445Z,17.1
2018-11-03T02:38:34.668Z,17.1
2018-11-03T02:39:26.127Z,17.1
2018-11-03T02:40:15.152Z,17.1
2018-11-03T02:41:06.377Z,17.1
2018-11-03T02:41:55.562Z,17.1
2018-11-03T02:42:47.408Z,17.1
2018-11-03T02:43:34.950Z,17.1
2018-11-03T02:44:25.248Z,17.1
2018-11-03T02:45:16.215Z,17.1
2018-11-03T02:46:06.537Z,17.1
2018-11-03T02:46:54.989Z,17.1
2018-11-03T02:47:46.901Z,17.1
2018-11-03T02:48:36.737Z,17.1
2018-11-03T02:49:28.139Z,17.1
2018-11-03T02:50:16.492Z,17.1
2018-11-03T02:51:05.991Z,17.1
2018-11-03T02:51:56.727Z,17.1
2018-11-03T02:52:47.464Z,17.1
2018-11-03T02:53:36.297Z,17.1
2018-11-03T02:54:27.099Z,17.1
2018-11-03T02:55:16.416Z,17.1
2018-11-03T02:56:08.665Z,17.1
2018-11-03T02:56:56.656Z,17.1
2018-11-03T02:57:46.306Z,17.1
2018-11-03T02:58:37.481Z,17.1
2018-11-03T02:59:28.046Z,17.1
2018-11-03T03:00:17.495Z,17.1
2018-11-03T03:01:07.887Z,17.1
2018-11-03T03:01:58.263Z,17.1
2018-11-03T03:02:47.923Z,17.1
2018-11-03T03:03:38.011Z,17.1
2018-11-03T03:04:27.931Z,17.1
2018-11-03T03:06:08.104Z,17.1
2018-11-03T03:06:58.971Z,17.1
2018-11-03T03:08:38.203Z,17.1
2018-11-03T03:09:28.268Z,17.1
2018-11-03T03:10:17.869Z,17.1
2018-11-03T03:11:07.925Z,17.1
2018-11-03T03:11:59.059Z,17.1
2018-11-03T03:12:49.118Z,17.1
2018-11-03T03:16:58.602Z,17.1
2018-11-03T03:42:50.696Z,16.9
2018-11-03T03:43:40.237Z,16.9
2018-11-03T03:44:30.108Z,16.9
2018-11-03T03:46:09.990Z,16.9
2018-11-03T03:47:50.887Z,16.9
2018-11-03T03:48:40.265Z,16.9
2018-11-03T03:49:31.069Z,16.9
2018-11-03T03:50:21.116Z,16.9
2018-11-03T03:51:11.098Z,16.9
2018-11-03T03:52:01.290Z,16.9
2018-11-03T03:53:41.153Z,16.9
2018-11-03T03:54:32.096Z,16.9
2018-11-03T03:55:21.503Z,16.9
2018-11-03T03:56:11.729Z,16.9
2018-11-03T03:57:01.039Z,16.9
2018-11-03T03:57:50.594Z,16.9
2018-11-03T03:58:40.943Z,16.9
2018-11-03T03:59:31.542Z,16.9
2018-11-03T04:00:20.358Z,16.9
2018-11-03T04:01:11.653Z,16.9
2018-11-03T04:02:01.457Z,16.9
2018-11-03T04:02:52.822Z,16.9
2018-11-03T04:03:41.933Z,16.9
2018-11-03T04:04:31.785Z,16.9
2018-11-03T04:05:22.582Z,16.9
2018-11-03T04:06:13.300Z,16.9
2018-11-03T04:07:02.893Z,16.9
2018-11-03T04:07:53.320Z,16.9
2018-11-03T04:08:42.845Z,16.9
2018-11-03T04:09:32.983Z,16.9
2018-11-03T04:10:22.125Z,16.9
2018-11-03T04:11:12.552Z,16.9
2018-11-03T04:12:01.732Z,16.9
2018-11-03T04:12:52.583Z,16.9
2018-11-03T04:13:42.425Z,16.9
2018-11-03T04:14:32.172Z,16.9
2018-11-03T04:15:23.407Z,16.9
2018-11-03T04:16:14.860Z,16.9
2018-11-03T04:17:03.735Z,16.9
2018-11-03T04:17:53.562Z,16.9
2018-11-03T04:18:42.427Z,16.9
2018-11-03T04:19:34.642Z,16.9
2018-11-03T04:20:22.954Z,16.9
2018-11-03T04:21:13.656Z,16.9
2018-11-03T04:22:02.726Z,16.9
2018-11-03T04:22:53.242Z,16.9
2018-11-03T04:23:42.799Z,16.9
2018-11-03T04:24:33.829Z,16.9
2018-11-03T04:25:38.922Z,16.9
2018-11-03T04:26:13.301Z,16.9
2018-11-03T04:27:04.162Z,16.9
2018-11-03T04:27:53.999Z,16.9
2018-11-03T04:28:43.433Z,16.9
2018-11-03T04:29:33.751Z,16.9
2018-11-03T04:30:24.136Z,16.9
2018-11-03T04:31:13.551Z,16.9
2018-11-03T04:32:04.024Z,16.9
2018-11-03T04:32:56.227Z,16.9
2018-11-03T04:33:43.257Z,16.9
2018-11-03T04:34:33.645Z,16.9
2018-11-03T04:35:23.466Z,16.9
2018-11-03T04:36:16.069Z,16.9
2018-11-03T04:54:14.850Z,16.9
2018-11-03T04:55:06.505Z,16.9
2018-11-03T04:55:54.166Z,16.9
2018-11-03T04:56:44.548Z,16.9
2018-11-03T04:57:34.475Z,16.9
2018-11-03T04:58:27.230Z,16.9
2018-11-03T04:59:15.368Z,16.9
2018-11-03T05:00:06.342Z,16.9
2018-11-03T05:00:55.257Z,16.8
2018-11-03T05:01:46.977Z,16.9
2018-11-03T05:02:35.702Z,16.9
2018-11-03T05:03:26.173Z,16.8
2018-11-03T05:04:15.478Z,16.9
2018-11-03T05:05:07.009Z,16.9
2018-11-03T05:05:54.935Z,16.8
2018-11-03T05:06:44.648Z,16.9
2018-11-03T05:07:36.014Z,16.9
2018-11-03T05:08:26.370Z,16.8
2018-11-03T05:09:15.167Z,16.8
2018-11-03T05:10:07.372Z,16.8
2018-11-03T05:10:55.568Z,16.8
2018-11-03T05:11:47.650Z,16.9
2018-11-03T05:12:36.719Z,16.8
2018-11-03T05:13:26.342Z,16.8
2018-11-03T05:14:16.569Z,16.8
2018-11-03T05:15:07.515Z,16.8
2018-11-03T05:15:56.661Z,16.8
2018-11-03T05:16:45.556Z,16.8
2018-11-03T05:17:36.203Z,16.8
2018-11-03T05:18:28.724Z,16.8
2018-11-03T05:19:16.911Z,16.8
2018-11-03T05:20:07.545Z,16.8
2018-11-03T05:20:56.578Z,16.8
2018-11-03T05:21:48.151Z,16.8
2018-11-03T05:22:37.434Z,16.8
2018-11-03T05:23:26.338Z,16.8
2018-11-03T05:24:16.512Z,16.8
2018-11-03T05:25:08.676Z,16.8
2018-11-03T05:25:56.731Z,16.8
2018-11-03T05:26:46.975Z,16.8
2018-11-03T05:27:38.071Z,16.8
2018-11-03T05:28:27.625Z,16.8
2018-11-03T05:29:16.836Z,16.8
2018-11-03T05:30:07.148Z,16.8
2018-11-03T05:30:57.372Z,16.8
2018-11-03T05:31:47.326Z,16.8
2018-11-03T05:32:37.957Z,16.8
2018-11-03T05:33:27.215Z,16.8
2018-11-03T05:34:17.931Z,16.8
2018-11-03T05:35:08.438Z,16.8
2018-11-03T05:35:57.542Z,16.8
2018-11-03T05:36:47.334Z,16.8
2018-11-03T05:37:36.610Z,16.8
2018-11-03T05:38:27.437Z,16.8
2018-11-03T05:39:17.336Z,16.8
2018-11-03T05:40:07.505Z,16.8
2018-11-03T05:40:57.835Z,16.8
2018-11-03T05:41:48.893Z,16.8
2018-11-03T05:42:38.415Z,16.8
2018-11-03T05:43:27.807Z,16.8
2018-11-03T05:44:17.450Z,16.8
2018-11-03T05:45:08.229Z,16.8
2018-11-03T05:45:58.769Z,16.8
2018-11-03T05:46:49.785Z,16.8
2018-11-03T05:47:38.254Z,16.8
2018-11-03T05:48:27.802Z,16.8
2018-11-03T05:49:17.839Z,16.8
2018-11-03T05:50:08.062Z,16.8
2018-11-03T05:51:00.494Z,16.8
2018-11-03T05:51:48.531Z,16.8
2018-11-03T05:52:39.242Z,16.8
2018-11-03T05:53:29.157Z,16.8
2018-11-03T05:54:18.448Z,16.8
2018-11-03T05:55:08.200Z,16.8
2018-11-03T05:55:58.146Z,16.8
2018-11-03T05:56:49.536Z,16.8
2018-11-03T05:57:38.949Z,16.8
2018-11-03T05:58:28.639Z,16.8
2018-11-03T05:59:18.990Z,16.8
2018-11-03T06:00:09.253Z,16.8
2018-11-03T06:00:59.688Z,16.8
2018-11-03T06:01:49.061Z,16.8
2018-11-03T06:02:39.056Z,16.8
2018-11-03T06:03:29.355Z,16.8
2018-11-03T06:04:20.524Z,16.8
2018-11-03T06:05:10.354Z,16.8
2018-11-03T06:06:00.384Z,16.8
2018-11-03T06:06:49.914Z,16.8
2018-11-03T06:07:40.039Z,16.8
2018-11-03T06:08:29.711Z,16.8
2018-11-03T06:09:19.866Z,16.8
2018-11-03T06:10:09.607Z,16.8
2018-11-03T06:11:00.127Z,16.8
2018-11-03T06:11:50.642Z,16.8
2018-11-03T06:12:40.236Z,16.8
2018-11-03T06:13:30.963Z,16.8
2018-11-03T06:14:20.326Z,16.8
2018-11-03T06:15:10.368Z,16.8
2018-11-03T06:16:02.621Z,16.8
2018-11-03T06:16:50.350Z,16.8
2018-11-03T06:17:40.550Z,16.8
2018-11-03T06:18:31.000Z,16.8
2018-11-03T06:19:21.349Z,16.8
2018-11-03T06:20:09.740Z,16.8
2018-11-03T06:21:01.098Z,16.8
2018-11-03T06:21:51.800Z,16.8
2018-11-03T06:22:44.904Z,16.8
2018-11-03T06:23:32.641Z,16.8
2018-11-03T06:24:21.058Z,16.8
2018-11-03T06:25:10.453Z,16.8
2018-11-03T06:26:01.228Z,16.8
2018-11-03T06:26:52.922Z,16.8
2018-11-03T06:27:41.742Z,16.8
2018-11-03T06:28:32.576Z,16.8
2018-11-03T06:29:22.127Z,16.8
2018-11-03T06:30:11.881Z,16.8
2018-11-03T06:31:02.132Z,16.8
2018-11-03T06:31:51.692Z,16.8
2018-11-03T06:32:43.370Z,16.8
2018-11-03T06:33:31.456Z,16.8
2018-11-03T06:34:23.063Z,16.8
2018-11-03T06:35:14.303Z,16.8
2018-11-03T06:36:03.344Z,16.8
2018-11-03T06:36:51.564Z,16.8
2018-11-03T06:37:42.532Z,16.8
2018-11-03T06:38:32.292Z,16.8
2018-11-03T06:39:23.114Z,16.8
2018-11-03T06:40:13.299Z,16.8
2018-11-03T06:41:01.941Z,16.8
2018-11-03T06:41:53.010Z,16.8
2018-11-03T06:42:43.621Z,16.8
2018-11-03T06:43:31.369Z,16.8
2018-11-03T06:44:21.394Z,16.8
2018-11-03T06:45:13.214Z,16.8
2018-11-03T06:46:03.701Z,16.8
2018-11-03T06:46:52.789Z,16.8
2018-11-03T06:47:45.409Z,16.8
2018-11-03T06:48:32.391Z,16.8
2018-11-03T06:49:25.071Z,16.8
2018-11-03T06:50:12.178Z,16.8
2018-11-03T06:51:03.771Z,16.8
2018-11-03T06:51:52.026Z,16.8
2018-11-03T06:52:44.991Z,16.8
2018-11-03T06:53:33.861Z,16.8
2018-11-03T06:54:23.636Z,16.8
2018-11-03T06:55:12.914Z,16.8
2018-11-03T06:56:06.356Z,16.8
2018-11-03T06:56:54.873Z,16.8
2018-11-03T06:57:42.929Z,16.8
2018-11-03T06:58:34.704Z,16.8
2018-11-03T06:59:25.451Z,16.8
2018-11-03T07:00:14.265Z,16.8
2018-11-03T07:01:04.354Z,16.8
2018-11-03T07:01:53.556Z,16.8
2018-11-03T07:02:45.323Z,16.8
2018-11-03T07:03:35.010Z,16.8
2018-11-03T07:04:24.462Z,16.8
2018-11-03T07:05:16.673Z,16.8
2018-11-03T07:06:06.643Z,16.8
2018-11-03T07:06:54.906Z,16.8
2018-11-03T07:07:44.859Z,16.7
2018-11-03T07:08:35.247Z,16.7
2018-11-03T07:09:25.882Z,16.7
2018-11-03T07:10:15.493Z,16.7
2018-11-03T07:11:05.901Z,16.7
2018-11-03T07:11:55.381Z,16.7
2018-11-03T07:12:51.129Z,16.7
2018-11-03T07:13:35.638Z,16.7
2018-11-03T07:14:25.870Z,16.7
2018-11-03T07:15:15.991Z,16.7
2018-11-03T07:16:07.558Z,16.7
2018-11-03T07:16:55.727Z,16.7
2018-11-03T07:17:46.733Z,16.7
2018-11-03T07:18:35.391Z,16.6
2018-11-03T07:19:27.778Z,16.7
2018-11-03T07:20:14.685Z,16.7
2018-11-03T07:21:06.433Z,16.7
2018-11-03T07:21:57.688Z,16.7
2018-11-03T07:22:47.670Z,16.7
2018-11-03T07:23:35.764Z,16.7
2018-11-03T07:24:26.871Z,16.8
2018-11-03T07:25:15.102Z,16.8
2018-11-03T07:26:07.690Z,16.8
2018-11-03T07:26:56.995Z,16.8
2018-11-03T07:27:45.995Z,16.8
2018-11-03T07:28:36.652Z,16.8
2018-11-03T07:29:26.822Z,16.8
2018-11-03T07:30:16.430Z,16.8
2018-11-03T07:31:06.214Z,16.8
2018-11-03T07:31:56.639Z,16.8
2018-11-03T07:32:47.841Z,16.8
2018-11-03T07:33:36.966Z,16.8
2018-11-03T07:34:26.357Z,16.8
2018-11-03T07:35:17.957Z,16.8
2018-11-03T07:36:08.674Z,16.8
2018-11-03T07:36:58.115Z,16.8
2018-11-03T07:37:47.869Z,16.8
2018-11-03T07:38:38.519Z,16.8
2018-11-03T07:39:26.981Z,16.8
2018-11-03T07:40:17.669Z,16.8
2018-11-03T07:41:09.750Z,16.8
2018-11-03T07:41:56.555Z,16.8
2018-11-03T07:42:48.985Z,16.8
2018-11-03T07:43:37.497Z,16.8
2018-11-03T07:44:27.092Z,16.8
2018-11-03T07:45:17.474Z,16.8
2018-11-03T07:46:07.774Z,16.8
2018-11-03T07:46:57.188Z,16.8
2018-11-03T07:47:47.143Z,16.8
2018-11-03T07:48:37.571Z,16.8
2018-11-03T07:49:28.668Z,16.8
2018-11-03T07:50:17.740Z,16.8
2018-11-03T07:51:07.381Z,16.8
2018-11-03T07:51:57.898Z,16.8
2018-11-03T07:52:48.064Z,16.8
2018-11-03T07:53:37.760Z,16.8
2018-11-03T07:54:27.836Z,16.8
2018-11-03T07:55:18.355Z,16.8
2018-11-03T07:56:06.709Z,16.8
2018-11-03T07:56:59.105Z,16.8
2018-11-03T07:57:48.582Z,16.8
2018-11-03T07:58:38.696Z,16.8
2018-11-03T07:59:27.535Z,16.8
2018-11-03T08:00:19.438Z,16.8
2018-11-03T08:01:09.000Z,16.8
2018-11-03T08:01:58.801Z,16.8
2018-11-03T08:02:48.070Z,16.8
2018-11-03T08:03:38.276Z,16.8
2018-11-03T08:04:27.988Z,16.8
2018-11-03T08:05:19.077Z,16.8
2018-11-03T08:06:08.474Z,16.8
2018-11-03T08:06:58.362Z,16.8
2018-11-03T08:07:49.801Z,16.8
2018-11-03T08:08:40.067Z,16.8
2018-11-03T08:09:29.839Z,16.8
2018-11-03T08:10:19.019Z,16.8
2018-11-03T08:11:08.625Z,16.8
2018-11-03T08:11:59.662Z,16.8
2018-11-03T08:12:48.963Z,16.8
2018-11-03T08:13:40.711Z,16.8
2018-11-03T08:14:29.494Z,16.8
2018-11-03T08:15:18.965Z,16.8
2018-11-03T08:16:08.841Z,16.8
2018-11-03T08:16:58.704Z,16.8
2018-11-03T08:17:50.090Z,16.8
2018-11-03T08:18:39.272Z,16.8
2018-11-03T08:19:30.012Z,16.8
2018-11-03T08:20:19.324Z,16.8
2018-11-03T08:21:10.205Z,16.8
2018-11-03T08:22:00.274Z,16.8
2018-11-03T08:22:50.392Z,16.8
2018-11-03T08:23:40.209Z,16.8
2018-11-03T08:24:30.119Z,16.8
2018-11-03T08:25:21.559Z,16.8
2018-11-03T08:26:09.676Z,16.8
2018-11-03T08:27:00.161Z,16.8
2018-11-03T08:27:49.899Z,16.8
2018-11-03T08:28:39.759Z,16.8
2018-11-03T08:29:30.247Z,16.8
2018-11-03T08:30:20.568Z,16.8
2018-11-03T08:31:10.131Z,16.8
2018-11-03T08:32:01.218Z,16.8
2018-11-03T08:32:51.095Z,16.8
2018-11-03T08:33:40.906Z,16.8
2018-11-03T08:34:31.431Z,16.9
2018-11-03T08:35:20.670Z,16.8
2018-11-03T08:36:10.511Z,16.8
2018-11-03T08:37:01.273Z,16.8
2018-11-03T08:37:51.185Z,16.9
2018-11-03T08:38:41.453Z,16.9
2018-11-03T08:39:33.440Z,16.8
2018-11-03T08:40:21.487Z,16.8
2018-11-03T08:41:11.713Z,16.8
2018-11-03T08:42:01.590Z,16.7
2018-11-03T08:42:53.550Z,16.6
2018-11-03T08:43:42.233Z,16.6
2018-11-03T08:44:31.420Z,16.6
2018-11-03T08:45:21.783Z,16.5
2018-11-03T08:46:11.475Z,16.5
2018-11-03T08:47:02.454Z,16.4
2018-11-03T08:47:52.193Z,16.4
2018-11-03T08:48:43.056Z,16.3
2018-11-03T08:49:33.865Z,16.3
2018-11-03T08:50:21.910Z,16.4
2018-11-03T08:51:12.088Z,16.4
2018-11-03T08:52:02.873Z,16.4
2018-11-03T09:08:47.992Z,16.6
2018-11-03T09:09:37.332Z,16.7
2018-11-03T09:10:26.662Z,16.7
2018-11-03T09:11:17.952Z,16.7
2018-11-03T09:12:07.860Z,16.7
2018-11-03T09:12:58.068Z,16.7
2018-11-03T09:13:49.170Z,16.7
2018-11-03T09:14:40.349Z,16.7
2018-11-03T09:15:28.778Z,16.7
2018-11-03T09:16:17.794Z,16.7
2018-11-03T09:17:08.602Z,16.8
2018-11-03T09:17:57.318Z,16.7
2018-11-03T09:18:48.770Z,16.7
2018-11-03T09:19:39.121Z,16.8
2018-11-03T09:20:27.969Z,16.8
2018-11-03T09:21:19.405Z,16.8
2018-11-03T09:22:08.667Z,16.8
2018-11-03T09:22:58.911Z,16.8
2018-11-03T09:23:49.376Z,16.8
2018-11-03T09:24:40.001Z,16.8
2018-11-03T09:25:28.858Z,16.8
2018-11-03T09:26:18.174Z,16.8
2018-11-03T09:27:09.633Z,16.8
2018-11-03T09:27:58.651Z,16.8
2018-11-03T09:28:48.889Z,16.8
2018-11-03T09:29:39.481Z,16.8
2018-11-03T09:30:29.613Z,16.8
2018-11-03T09:31:19.983Z,16.8
2018-11-03T09:32:11.776Z,16.8
2018-11-03T09:32:59.668Z,16.8
2018-11-03T09:33:50.379Z,16.8
2018-11-03T09:34:41.380Z,16.8
2018-11-03T09:35:30.021Z,16.8
2018-11-03T09:36:20.236Z,16.8
2018-11-03T09:37:10.363Z,16.8
2018-11-03T09:37:59.973Z,16.8
2018-11-03T09:38:50.939Z,16.8
2018-11-03T09:39:40.088Z,16.8
2018-11-03T09:40:28.757Z,16.8
2018-11-03T09:41:19.881Z,16.8
2018-11-03T09:42:09.811Z,16.8
2018-11-03T09:43:01.929Z,16.8
2018-11-03T09:43:49.725Z,16.8
2018-11-03T09:44:40.619Z,16.8
2018-11-03T09:45:30.720Z,16.8
2018-11-03T09:46:19.562Z,16.8
2018-11-03T09:47:09.740Z,16.8
2018-11-03T09:48:00.042Z,16.8
2018-11-03T09:48:49.506Z,16.8
2018-11-03T09:49:39.929Z,16.9
2018-11-03T09:50:30.513Z,16.9
2018-11-03T09:51:21.734Z,16.8
2018-11-03T09:52:10.317Z,16.9
2018-11-03T09:53:00.287Z,16.9
2018-11-03T09:53:52.622Z,16.9
2018-11-03T09:54:40.787Z,16.9
2018-11-03T09:55:31.388Z,16.9
2018-11-03T09:56:21.940Z,16.9
2018-11-03T09:57:11.674Z,16.9
2018-11-03T09:58:01.925Z,16.9
2018-11-03T09:58:50.947Z,16.9
2018-11-03T09:59:40.503Z,16.9
2018-11-03T10:00:32.525Z,16.9
2018-11-03T10:01:21.922Z,16.9
2018-11-03T10:02:10.679Z,16.9
2018-11-03T10:03:01.597Z,16.9
2018-11-03T10:03:51.644Z,16.9
2018-11-03T10:04:41.524Z,16.9
2018-11-03T10:05:33.017Z,16.9
2018-11-03T10:06:21.313Z,16.9
2018-11-03T10:07:13.418Z,16.9
2018-11-03T10:08:01.425Z,16.9
2018-11-03T10:08:51.037Z,16.9
2018-11-03T10:09:42.044Z,16.9
2018-11-03T10:10:35.160Z,16.9
2018-11-03T10:11:23.647Z,16.9
2018-11-03T10:12:12.389Z,16.9
2018-11-03T10:13:02.990Z,16.9
2018-11-03T10:13:54.451Z,16.9
2018-11-03T10:14:41.409Z,16.9
2018-11-03T10:15:31.558Z,16.9
2018-11-03T10:16:23.313Z,16.9
2018-11-03T10:17:13.939Z,16.9
2018-11-03T10:18:03.327Z,16.9
2018-11-03T10:18:52.613Z,16.9
2018-11-03T10:19:42.778Z,16.9
2018-11-03T10:20:34.101Z,16.9
2018-11-03T10:21:22.611Z,16.9
2018-11-03T10:22:13.783Z,16.9
2018-11-03T10:23:05.598Z,16.9
2018-11-03T10:23:53.941Z,16.9
2018-11-03T10:24:43.201Z,16.9
2018-11-03T10:25:34.140Z,16.9
2018-11-03T10:26:23.084Z,16.9
2018-11-03T10:27:15.208Z,16.9
2018-11-03T10:29:43.589Z,16.9
2018-11-03T10:31:23.793Z,16.9
2018-11-03T10:38:53.453Z,17.1
2018-11-03T10:39:44.393Z,17.1
2018-11-03T10:40:34.265Z,17.1
2018-11-03T10:41:24.554Z,17.1
2018-11-03T10:42:14.237Z,17.1
2018-11-03T10:43:04.470Z,17.1
2018-11-03T10:43:56.580Z,17.1
2018-11-03T10:44:44.682Z,17.1
2018-11-03T10:45:34.275Z,17.1
2018-11-03T10:46:27.604Z,17.1
2018-11-03T10:47:15.790Z,17.1
2018-11-03T10:48:03.655Z,17.1
2018-11-03T10:48:55.976Z,17.1
2018-11-03T10:49:45.157Z,17.1
2018-11-03T10:50:35.338Z,17.1
2018-11-03T10:51:25.372Z,17.1
2018-11-03T10:52:15.279Z,17.1
2018-11-03T10:53:05.551Z,17.1
2018-11-03T10:53:56.367Z,17.1
2018-11-03T10:54:44.387Z,17.1
2018-11-03T10:55:35.548Z,17.1
2018-11-03T10:56:24.654Z,17.1
2018-11-03T10:57:15.224Z,17.1
2018-11-03T10:58:07.084Z,17.1
2018-11-03T10:58:55.226Z,17.1
2018-11-03T10:59:45.949Z,17.1
2018-11-03T11:00:36.167Z,17.1
2018-11-03T11:01:26.844Z,17.1
2018-11-03T11:02:15.422Z,17.2
2018-11-03T11:03:05.913Z,17.2
2018-11-03T11:03:55.628Z,17.1
2018-11-03T11:04:46.504Z,17.1
2018-11-03T11:05:36.132Z,17.1
2018-11-03T11:06:25.631Z,17.1
2018-11-03T11:07:15.868Z,17.1
2018-11-03T11:08:06.220Z,17.2
2018-11-03T11:08:56.447Z,17.2
2018-11-03T11:09:46.225Z,17.2
2018-11-03T11:10:36.183Z,17.1
2018-11-03T11:11:26.312Z,17.1
2018-11-03T11:12:16.839Z,17.2
2018-11-03T11:13:07.205Z,17.2
2018-11-03T11:13:56.570Z,17.2
2018-11-03T11:14:45.563Z,17.2
2018-11-03T11:15:37.412Z,17.2
2018-11-03T11:16:29.351Z,17.2
2018-11-03T11:17:16.937Z,17.2
2018-11-03T11:18:08.112Z,17.2
2018-11-03T11:18:56.785Z,17.2
2018-11-03T11:19:48.210Z,17.2
2018-11-03T11:20:37.385Z,17.2
2018-11-03T11:21:28.162Z,17.2
2018-11-03T11:22:16.844Z,17.2
2018-11-03T11:23:07.262Z,17.2
2018-11-03T11:24:00.402Z,17.2
2018-11-03T11:24:48.818Z,17.2
2018-11-03T11:25:38.577Z,17.1
2018-11-03T11:26:28.372Z,17.2
2018-11-03T11:27:16.859Z,17.1
2018-11-03T11:28:07.322Z,17.2
2018-11-03T11:28:58.587Z,17.2
2018-11-03T11:29:48.469Z,17.2
2018-11-03T11:30:38.479Z,17.2
2018-11-03T11:31:29.819Z,17.2
2018-11-03T11:32:18.729Z,17.2
2018-11-03T11:33:08.426Z,17.1
2018-11-03T11:33:58.877Z,17.2
2018-11-03T11:34:49.547Z,17.2
2018-11-03T11:35:38.614Z,17.2
2018-11-03T11:36:28.467Z,17.2
2018-11-03T11:37:19.210Z,17.2
2018-11-03T11:38:09.008Z,17.2
2018-11-03T11:38:58.251Z,17.2
2018-11-03T11:39:48.899Z,17.2
2018-11-03T11:40:38.551Z,17.2
2018-11-03T11:41:30.210Z,17.3
2018-11-03T11:42:19.556Z,17.3
2018-11-03T11:43:07.753Z,17.3
2018-11-03T11:43:59.252Z,17.3
2018-11-03T11:44:49.285Z,17.3
2018-11-03T11:45:40.022Z,17.3
2018-11-03T11:46:29.336Z,17.3
2018-11-03T11:47:18.658Z,17.3
2018-11-03T11:48:10.159Z,17.3
2018-11-03T11:48:59.932Z,17.3
2018-11-03T11:49:49.491Z,17.3
2018-11-03T11:50:39.574Z,17.3
2018-11-03T11:51:31.069Z,17.3
2018-11-03T11:52:19.532Z,17.3
2018-11-03T11:53:10.516Z,17.3
2018-11-03T11:54:00.669Z,17.3
2018-11-03T11:54:52.223Z,17.3
2018-11-03T11:55:39.996Z,17.3
2018-11-03T11:56:29.825Z,17.3
2018-11-03T11:57:19.931Z,17.3
2018-11-03T11:58:12.221Z,17.3
2018-11-03T11:59:00.207Z,17.3
2018-11-03T11:59:50.511Z,17.3
2018-11-03T12:00:44.204Z,17.3
2018-11-03T12:01:30.552Z,17.2
2018-11-03T12:02:21.411Z,17.3
2018-11-03T12:03:10.150Z,17.3
2018-11-03T12:04:01.403Z,17.3
2018-11-03T12:04:51.755Z,17.3
2018-11-03T12:05:41.070Z,17.3
2018-11-03T12:06:31.155Z,17.3
2018-11-03T12:07:21.439Z,17.3
2018-11-03T12:08:11.217Z,17.3
2018-11-03T12:08:59.958Z,17.3
2018-11-03T12:09:50.368Z,17.3
2018-11-03T12:10:40.666Z,17.3
2018-11-03T12:11:30.546Z,17.3
2018-11-03T12:12:20.752Z,17.3
2018-11-03T12:13:11.420Z,17.3
2018-11-03T12:14:00.553Z,17.3
2018-11-03T12:14:51.759Z,17.3
2018-11-03T12:15:41.447Z,17.3
2018-11-03T12:16:31.325Z,17.3
2018-11-03T12:17:21.640Z,17.3
2018-11-03T12:18:10.701Z,17.3
2018-11-03T12:19:01.180Z,17.3
2018-11-03T12:19:52.266Z,17.3
2018-11-03T12:20:42.344Z,17.3
2018-11-03T12:21:31.169Z,17.3
2018-11-03T12:22:21.517Z,17.3
2018-11-03T12:23:12.382Z,17.3
2018-11-03T12:24:00.894Z,17.3
2018-11-03T12:24:52.689Z,17.3
2018-11-03T12:25:44.541Z,17.3
2018-11-03T12:26:32.756Z,17.3
2018-11-03T12:27:21.412Z,17.3
2018-11-03T12:28:12.321Z,17.3
2018-11-03T12:29:03.061Z,17.3
2018-11-03T12:29:52.499Z,17.3
2018-11-03T12:30:42.756Z,17.3
2018-11-03T12:31:32.864Z,17.3
2018-11-03T12:32:22.748Z,17.3
2018-11-03T12:33:12.844Z,17.3
2018-11-03T12:34:01.982Z,17.3
2018-11-03T12:34:55.102Z,17.3
2018-11-03T12:35:42.526Z,17.3
2018-11-03T12:36:33.498Z,17.3
2018-11-03T12:37:22.293Z,17.3
2018-11-03T12:38:13.217Z,17.3
2018-11-03T12:39:02.831Z,17.3